ACA100 CYVR-CYYZ
Flight info
| Callsign | ACA100 |
|---|---|
| Flight time | N/A |
| Altitude | 33000 |
| Route | ALNOD DCT IKNIX DCT BEVEL DCT 4930N10000W/N0445F350 DCT AGLIN DCT OTNIK BOXUM7 |
| Aircraft | A321/M-SDE3FGHIRWY/LB1 |
Departure
| Time | 2026-05-08 09:05 |
|---|---|
| Airport | Vancouver International Airport (CYVR) |
Arrival
| Time | N/A |
|---|---|
| Airport | Toronto Pearson International Airport (CYYZ) |
| Time | Latitude | Longitude | Altitude | Speed | Heading |
|---|---|---|---|---|---|
| 2026-05-08 08:48 | 49.19182 | -123.18214 | 25 ft | 0 kts | 10° |
| 2026-05-08 08:55 | 49.19175 | -123.18216 | 26 ft | 2 kts | 8° |
| 2026-05-08 08:55 | 49.19156 | -123.18219 | 25 ft | 3 kts | 358° |
| 2026-05-08 08:56 | 49.19136 | -123.18216 | 26 ft | 3 kts | 341° |
| 2026-05-08 08:56 | 49.19119 | -123.18203 | 26 ft | 3 kts | 308° |
| 2026-05-08 08:56 | 49.19113 | -123.18187 | 26 ft | 1 kts | 279° |
| 2026-05-08 08:56 | 49.19113 | -123.18186 | 26 ft | 0 kts | 279° |
| 2026-05-08 08:58 | 49.19114 | -123.18199 | 26 ft | 4 kts | 279° |
| 2026-05-08 08:58 | 49.19120 | -123.18254 | 25 ft | 5 kts | 278° |
| 2026-05-08 08:59 | 49.19121 | -123.18314 | 25 ft | 8 kts | 265° |
| 2026-05-08 08:59 | 49.19103 | -123.18421 | 25 ft | 11 kts | 265° |
| 2026-05-08 08:59 | 49.19140 | -123.18504 | 27 ft | 9 kts | 323° |
| 2026-05-08 08:59 | 49.19152 | -123.18579 | 25 ft | 10 kts | 244° |
| 2026-05-08 09:00 | 49.19153 | -123.18685 | 27 ft | 10 kts | 312° |
| 2026-05-08 09:00 | 49.19209 | -123.18752 | 25 ft | 12 kts | 322° |
| 2026-05-08 09:00 | 49.19284 | -123.18840 | 25 ft | 13 kts | 322° |
| 2026-05-08 09:00 | 49.19350 | -123.18922 | 25 ft | 11 kts | 312° |
| 2026-05-08 09:01 | 49.19358 | -123.19025 | 25 ft | 9 kts | 260° |
| 2026-05-08 09:01 | 49.19346 | -123.19120 | 25 ft | 9 kts | 259° |
| 2026-05-08 09:01 | 49.19335 | -123.19206 | 26 ft | 10 kts | 259° |
| 2026-05-08 09:01 | 49.19318 | -123.19349 | 25 ft | 14 kts | 259° |
| 2026-05-08 09:02 | 49.19301 | -123.19484 | 25 ft | 12 kts | 259° |
| 2026-05-08 09:02 | 49.19287 | -123.19600 | 25 ft | 10 kts | 259° |
| 2026-05-08 09:02 | 49.19271 | -123.19725 | 25 ft | 15 kts | 259° |
| 2026-05-08 09:02 | 49.19251 | -123.19889 | 28 ft | 15 kts | 259° |
| 2026-05-08 09:03 | 49.19234 | -123.20035 | 25 ft | 13 kts | 259° |
| 2026-05-08 09:03 | 49.19217 | -123.20159 | 25 ft | 11 kts | 258° |
| 2026-05-08 09:03 | 49.19204 | -123.20267 | 25 ft | 9 kts | 259° |
| 2026-05-08 09:03 | 49.19193 | -123.20355 | 26 ft | 8 kts | 259° |
| 2026-05-08 09:04 | 49.19145 | -123.20427 | 26 ft | 15 kts | 191° |
| 2026-05-08 09:04 | 49.19041 | -123.20451 | 26 ft | 14 kts | 189° |
| 2026-05-08 09:04 | 49.18967 | -123.20398 | 26 ft | 12 kts | 108° |
| 2026-05-08 09:04 | 49.18953 | -123.20277 | 25 ft | 12 kts | 99° |
| 2026-05-08 09:05 | 49.18919 | -123.19966 | 27 ft | 65 kts | 99° |
| 2026-05-08 09:05 | 49.18799 | -123.18890 | 25 ft | 138 kts | 99° |
| 2026-05-08 09:05 | 49.18599 | -123.17165 | 194 ft | 178 kts | 100° |
| 2026-05-08 09:05 | 49.18374 | -123.15397 | 1249 ft | 166 kts | 101° |
| 2026-05-08 09:06 | 49.18151 | -123.13620 | 1963 ft | 181 kts | 102° |
| 2026-05-08 09:06 | 49.17911 | -123.11650 | 2333 ft | 195 kts | 102° |
| 2026-05-08 09:06 | 49.17661 | -123.09524 | 2500 ft | 212 kts | 100° |
| 2026-05-08 09:06 | 49.17445 | -123.07158 | 2621 ft | 237 kts | 98° |
| 2026-05-08 09:07 | 49.17237 | -123.04555 | 2958 ft | 254 kts | 98° |
| 2026-05-08 09:07 | 49.17029 | -123.01847 | 3628 ft | 258 kts | 98° |
| 2026-05-08 09:07 | 49.16816 | -122.99103 | 4346 ft | 261 kts | 98° |
| 2026-05-08 09:07 | 49.16597 | -122.96334 | 5055 ft | 264 kts | 98° |
| 2026-05-08 09:08 | 49.16368 | -122.93531 | 5726 ft | 268 kts | 98° |
| 2026-05-08 09:08 | 49.16132 | -122.90693 | 6379 ft | 272 kts | 99° |
| 2026-05-08 09:08 | 49.15896 | -122.87851 | 6979 ft | 275 kts | 99° |
| 2026-05-08 09:08 | 49.15654 | -122.84925 | 7582 ft | 279 kts | 99° |
| 2026-05-08 09:09 | 49.15406 | -122.81967 | 8179 ft | 283 kts | 99° |
| 2026-05-08 09:09 | 49.15156 | -122.78962 | 8781 ft | 287 kts | 99° |
| 2026-05-08 09:09 | 49.14905 | -122.75920 | 9376 ft | 291 kts | 99° |
| 2026-05-08 09:09 | 49.14649 | -122.72833 | 9970 ft | 294 kts | 98° |
| 2026-05-08 09:10 | 49.14384 | -122.69678 | 10275 ft | 308 kts | 99° |
| 2026-05-08 09:10 | 49.14099 | -122.66333 | 10395 ft | 327 kts | 99° |
| 2026-05-08 09:10 | 49.13797 | -122.62781 | 10533 ft | 346 kts | 99° |
| 2026-05-08 09:10 | 49.13589 | -122.60343 | 10734 ft | 352 kts | 99° |
| 2026-05-08 09:11 | 49.13269 | -122.56605 | 11227 ft | 357 kts | 99° |
| 2026-05-08 09:11 | 49.12840 | -122.51591 | 11930 ft | 362 kts | 99° |
| 2026-05-08 09:11 | 49.12511 | -122.47760 | 12450 ft | 366 kts | 99° |
| 2026-05-08 09:11 | 49.12174 | -122.43892 | 12999 ft | 369 kts | 99° |
| 2026-05-08 09:12 | 49.11950 | -122.41304 | 13351 ft | 372 kts | 99° |
| 2026-05-08 09:12 | 49.11605 | -122.37320 | 13885 ft | 376 kts | 99° |
| 2026-05-08 09:12 | 49.11264 | -122.33400 | 14342 ft | 379 kts | 99° |
| 2026-05-08 09:12 | 49.10913 | -122.29395 | 14809 ft | 383 kts | 99° |
| 2026-05-08 09:13 | 49.10557 | -122.25356 | 15282 ft | 386 kts | 99° |
| 2026-05-08 09:13 | 49.10196 | -122.21277 | 15750 ft | 389 kts | 99° |
| 2026-05-08 09:13 | 49.09831 | -122.17161 | 16216 ft | 393 kts | 99° |
| 2026-05-08 09:13 | 49.09463 | -122.13007 | 16649 ft | 397 kts | 99° |
| 2026-05-08 09:14 | 49.09090 | -122.08819 | 17071 ft | 400 kts | 99° |
| 2026-05-08 09:14 | 49.08708 | -122.04591 | 17506 ft | 404 kts | 99° |
| 2026-05-08 09:14 | 49.08320 | -122.00324 | 17940 ft | 407 kts | 99° |
| 2026-05-08 09:14 | 49.07929 | -121.96027 | 18371 ft | 410 kts | 99° |
| 2026-05-08 09:15 | 49.07534 | -121.91705 | 18725 ft | 414 kts | 99° |
| 2026-05-08 09:15 | 49.07135 | -121.87344 | 19072 ft | 416 kts | 99° |
| 2026-05-08 09:15 | 49.06732 | -121.82957 | 19425 ft | 419 kts | 99° |
| 2026-05-08 09:15 | 49.06326 | -121.78544 | 19775 ft | 422 kts | 99° |
| 2026-05-08 09:16 | 49.05913 | -121.74096 | 20139 ft | 425 kts | 99° |
| 2026-05-08 09:16 | 49.05495 | -121.69622 | 20511 ft | 428 kts | 99° |
| 2026-05-08 09:16 | 49.05280 | -121.65078 | 20882 ft | 432 kts | 89° |
| 2026-05-08 09:16 | 49.05568 | -121.60508 | 21238 ft | 435 kts | 82° |
| 2026-05-08 09:17 | 49.05999 | -121.55930 | 21627 ft | 438 kts | 82° |
| 2026-05-08 09:17 | 49.06430 | -121.51322 | 21975 ft | 441 kts | 82° |
| 2026-05-08 09:17 | 49.06854 | -121.46738 | 22304 ft | 444 kts | 82° |
| 2026-05-08 09:17 | 49.07281 | -121.42064 | 22649 ft | 446 kts | 82° |
| 2026-05-08 09:18 | 49.07706 | -121.37371 | 22968 ft | 449 kts | 82° |
| 2026-05-08 09:18 | 49.08133 | -121.32640 | 23281 ft | 452 kts | 82° |
| 2026-05-08 09:18 | 49.08560 | -121.27876 | 23591 ft | 455 kts | 82° |
| 2026-05-08 09:18 | 49.08986 | -121.23087 | 23852 ft | 457 kts | 82° |
| 2026-05-08 09:19 | 49.09412 | -121.18267 | 24125 ft | 459 kts | 82° |
| 2026-05-08 09:19 | 49.09838 | -121.13435 | 24353 ft | 461 kts | 82° |
| 2026-05-08 09:19 | 49.10266 | -121.08573 | 24621 ft | 463 kts | 82° |
| 2026-05-08 09:19 | 49.10696 | -121.03688 | 24919 ft | 465 kts | 82° |
| 2026-05-08 09:20 | 49.11123 | -120.98791 | 25187 ft | 467 kts | 82° |
| 2026-05-08 09:20 | 49.11549 | -120.93868 | 25449 ft | 468 kts | 82° |
| 2026-05-08 09:20 | 49.11973 | -120.88937 | 25719 ft | 470 kts | 82° |
| 2026-05-08 09:20 | 49.12397 | -120.83974 | 25984 ft | 472 kts | 82° |
| 2026-05-08 09:21 | 49.12822 | -120.78986 | 26235 ft | 474 kts | 82° |
| 2026-05-08 09:21 | 49.13247 | -120.73983 | 26473 ft | 476 kts | 82° |
| 2026-05-08 09:22 | 49.15791 | -120.43535 | 27870 ft | 488 kts | 82° |
| 2026-05-08 09:23 | 49.16214 | -120.38380 | 28084 ft | 489 kts | 82° |
| 2026-05-08 09:23 | 49.16635 | -120.33208 | 28292 ft | 491 kts | 82° |
| 2026-05-08 09:23 | 49.17053 | -120.28027 | 28516 ft | 493 kts | 82° |
| 2026-05-08 09:23 | 49.17472 | -120.22819 | 28742 ft | 494 kts | 82° |
| 2026-05-08 09:24 | 49.17889 | -120.17595 | 28914 ft | 496 kts | 82° |
| 2026-05-08 09:24 | 49.18306 | -120.12352 | 29139 ft | 498 kts | 82° |
| 2026-05-08 09:24 | 49.18714 | -120.07164 | 29398 ft | 498 kts | 82° |
| 2026-05-08 09:24 | 49.19122 | -120.01908 | 29699 ft | 498 kts | 82° |
| 2026-05-08 09:25 | 49.19529 | -119.96664 | 30019 ft | 497 kts | 82° |
| 2026-05-08 09:25 | 49.19935 | -119.91422 | 30287 ft | 496 kts | 82° |
| 2026-05-08 09:25 | 49.20342 | -119.86176 | 30540 ft | 497 kts | 82° |
| 2026-05-08 09:25 | 49.20746 | -119.80940 | 30798 ft | 496 kts | 82° |
| 2026-05-08 09:26 | 49.21150 | -119.75695 | 31056 ft | 496 kts | 82° |
| 2026-05-08 09:26 | 49.21548 | -119.70458 | 31313 ft | 496 kts | 82° |
| 2026-05-08 09:26 | 49.21941 | -119.65228 | 31591 ft | 495 kts | 82° |
| 2026-05-08 09:26 | 49.22331 | -119.59995 | 31805 ft | 496 kts | 82° |
| 2026-05-08 09:27 | 49.22717 | -119.54754 | 32012 ft | 496 kts | 82° |
| 2026-05-08 09:27 | 49.23104 | -119.49519 | 32276 ft | 495 kts | 82° |
| 2026-05-08 09:27 | 49.23491 | -119.44280 | 32561 ft | 495 kts | 82° |
| 2026-05-08 09:27 | 49.23873 | -119.39055 | 32819 ft | 494 kts | 82° |
| 2026-05-08 09:28 | 49.24255 | -119.33832 | 32934 ft | 493 kts | 81° |
| 2026-05-08 09:28 | 49.24998 | -119.23472 | 32969 ft | 488 kts | 82° |
| 2026-05-08 09:29 | 49.25700 | -119.13137 | 32978 ft | 488 kts | 82° |
| 2026-05-08 09:29 | 49.26374 | -119.02813 | 32996 ft | 488 kts | 82° |
| 2026-05-08 09:30 | 49.27039 | -118.92481 | 32999 ft | 487 kts | 82° |
| 2026-05-08 09:30 | 49.27702 | -118.82134 | 33010 ft | 488 kts | 82° |
| 2026-05-08 09:31 | 49.28356 | -118.71777 | 33009 ft | 488 kts | 82° |
| 2026-05-08 09:31 | 49.28996 | -118.61431 | 33020 ft | 488 kts | 82° |
| 2026-05-08 09:32 | 49.29632 | -118.51158 | 33008 ft | 487 kts | 82° |
| 2026-05-08 09:32 | 49.30264 | -118.40822 | 33001 ft | 487 kts | 82° |
| 2026-05-08 09:33 | 49.30875 | -118.30485 | 33000 ft | 487 kts | 82° |
| 2026-05-08 09:33 | 49.31472 | -118.20152 | 33012 ft | 487 kts | 82° |
| 2026-05-08 09:34 | 49.32068 | -118.09814 | 33001 ft | 487 kts | 82° |
| 2026-05-08 09:34 | 49.32668 | -117.99475 | 32996 ft | 487 kts | 82° |
| 2026-05-08 09:35 | 49.33248 | -117.89116 | 33002 ft | 487 kts | 82° |
| 2026-05-08 09:35 | 49.33814 | -117.78753 | 33004 ft | 488 kts | 82° |
| 2026-05-08 09:36 | 49.34375 | -117.68395 | 33043 ft | 487 kts | 81° |
| 2026-05-08 09:36 | 49.34920 | -117.58113 | 33037 ft | 487 kts | 81° |
| 2026-05-08 09:37 | 49.35460 | -117.47765 | 33032 ft | 487 kts | 82° |
| 2026-05-08 09:37 | 49.35988 | -117.37423 | 33021 ft | 486 kts | 82° |
| 2026-05-08 09:38 | 49.36507 | -117.27078 | 33023 ft | 486 kts | 82° |
| 2026-05-08 09:38 | 49.37021 | -117.16725 | 33004 ft | 486 kts | 82° |
| 2026-05-08 09:39 | 49.37528 | -117.06375 | 33009 ft | 487 kts | 82° |
| 2026-05-08 09:39 | 49.38028 | -116.96014 | 32994 ft | 486 kts | 82° |
| 2026-05-08 09:40 | 49.38514 | -116.85666 | 32992 ft | 487 kts | 82° |
| 2026-05-08 09:40 | 49.38990 | -116.75306 | 33003 ft | 486 kts | 82° |
| 2026-05-08 09:41 | 49.39457 | -116.64947 | 32990 ft | 486 kts | 82° |
| 2026-05-08 09:41 | 49.39911 | -116.54594 | 32986 ft | 487 kts | 82° |
| 2026-05-08 09:42 | 49.40358 | -116.44226 | 32999 ft | 486 kts | 82° |
| 2026-05-08 09:42 | 49.40797 | -116.33869 | 33005 ft | 486 kts | 82° |
| 2026-05-08 09:43 | 49.41232 | -116.23512 | 33016 ft | 485 kts | 82° |
| 2026-05-08 09:43 | 49.41654 | -116.13176 | 33020 ft | 485 kts | 82° |
| 2026-05-08 09:44 | 49.42063 | -116.02839 | 33014 ft | 485 kts | 82° |
| 2026-05-08 09:44 | 49.42460 | -115.92489 | 33015 ft | 485 kts | 82° |
| 2026-05-08 09:45 | 49.42850 | -115.82155 | 33040 ft | 485 kts | 82° |
| 2026-05-08 09:45 | 49.43231 | -115.71812 | 33033 ft | 485 kts | 82° |
| 2026-05-08 09:46 | 49.43605 | -115.61472 | 33028 ft | 485 kts | 82° |
| 2026-05-08 09:46 | 49.43973 | -115.51138 | 33024 ft | 484 kts | 82° |
| 2026-05-08 09:47 | 49.44330 | -115.40869 | 33030 ft | 484 kts | 82° |
| 2026-05-08 09:47 | 49.44674 | -115.30531 | 33049 ft | 485 kts | 82° |
| 2026-05-08 09:48 | 49.45008 | -115.20193 | 33036 ft | 484 kts | 82° |
| 2026-05-08 09:48 | 49.45337 | -115.09867 | 33032 ft | 484 kts | 82° |
| 2026-05-08 09:49 | 49.45653 | -114.99531 | 33031 ft | 484 kts | 82° |
| 2026-05-08 09:49 | 49.45963 | -114.89191 | 33048 ft | 484 kts | 82° |
| 2026-05-08 09:50 | 49.46263 | -114.78846 | 33040 ft | 485 kts | 82° |
| 2026-05-08 09:50 | 49.46557 | -114.68496 | 33033 ft | 485 kts | 82° |
| 2026-05-08 09:51 | 49.46838 | -114.58134 | 33027 ft | 485 kts | 82° |
| 2026-05-08 09:51 | 49.47111 | -114.47776 | 33031 ft | 485 kts | 82° |
| 2026-05-08 09:52 | 49.47374 | -114.37400 | 33042 ft | 486 kts | 82° |
| 2026-05-08 09:52 | 49.47627 | -114.27012 | 33013 ft | 486 kts | 82° |
| 2026-05-08 09:53 | 49.47870 | -114.16615 | 32999 ft | 486 kts | 82° |
| 2026-05-08 09:53 | 49.48106 | -114.06292 | 32997 ft | 486 kts | 82° |
| 2026-05-08 09:54 | 49.48327 | -113.95893 | 32997 ft | 486 kts | 82° |
| 2026-05-08 09:54 | 49.48541 | -113.85501 | 33024 ft | 486 kts | 82° |
| 2026-05-08 09:55 | 49.48747 | -113.75096 | 33000 ft | 487 kts | 82° |
| 2026-05-08 09:55 | 49.48943 | -113.64686 | 32995 ft | 487 kts | 82° |
| 2026-05-08 09:56 | 49.49135 | -113.54273 | 32995 ft | 487 kts | 82° |
| 2026-05-08 09:56 | 49.49313 | -113.43921 | 33032 ft | 488 kts | 82° |
| 2026-05-08 09:57 | 49.49574 | -113.28266 | 32997 ft | 488 kts | 82° |
| 2026-05-08 09:57 | 49.49735 | -113.17812 | 32988 ft | 489 kts | 82° |
| 2026-05-08 09:58 | 49.49877 | -113.07348 | 32986 ft | 489 kts | 82° |
| 2026-05-08 09:58 | 49.50007 | -112.96892 | 32985 ft | 489 kts | 82° |
| 2026-05-08 09:59 | 49.50137 | -112.86418 | 32982 ft | 490 kts | 82° |
| 2026-05-08 09:59 | 49.50260 | -112.75940 | 32979 ft | 490 kts | 82° |
| 2026-05-08 10:00 | 49.50371 | -112.65524 | 32977 ft | 490 kts | 82° |
| 2026-05-08 10:00 | 49.50476 | -112.55045 | 32982 ft | 490 kts | 82° |
| 2026-05-08 10:01 | 49.50571 | -112.44561 | 33002 ft | 490 kts | 82° |
| 2026-05-08 10:01 | 49.50635 | -112.35855 | 33005 ft | 490 kts | 82° |
| 2026-05-08 10:02 | 49.50707 | -112.25371 | 33004 ft | 490 kts | 82° |
| 2026-05-08 10:02 | 49.50765 | -112.14887 | 32999 ft | 490 kts | 82° |
| 2026-05-08 10:03 | 49.50820 | -112.04395 | 32997 ft | 490 kts | 82° |
| 2026-05-08 10:03 | 49.50870 | -111.93928 | 33020 ft | 489 kts | 82° |
| 2026-05-08 10:04 | 49.50910 | -111.83469 | 33015 ft | 489 kts | 82° |
| 2026-05-08 10:04 | 49.50940 | -111.73007 | 33009 ft | 489 kts | 82° |
| 2026-05-08 10:05 | 49.50957 | -111.62557 | 33004 ft | 488 kts | 82° |
| 2026-05-08 10:05 | 49.50964 | -111.52119 | 33045 ft | 487 kts | 82° |
| 2026-05-08 10:06 | 49.50961 | -111.41723 | 33006 ft | 485 kts | 82° |
| 2026-05-08 10:06 | 49.50946 | -111.31353 | 32998 ft | 485 kts | 82° |
| 2026-05-08 10:07 | 49.50928 | -111.20985 | 32996 ft | 485 kts | 82° |
| 2026-05-08 10:07 | 49.50902 | -111.10682 | 32995 ft | 485 kts | 82° |
| 2026-05-08 10:08 | 49.50866 | -111.00309 | 33033 ft | 485 kts | 82° |
| 2026-05-08 10:08 | 49.50816 | -110.89926 | 33007 ft | 485 kts | 82° |
| 2026-05-08 10:09 | 49.50755 | -110.79554 | 32998 ft | 485 kts | 82° |
| 2026-05-08 10:09 | 49.50678 | -110.69169 | 32983 ft | 485 kts | 82° |
| 2026-05-08 10:10 | 49.50602 | -110.58791 | 32973 ft | 485 kts | 82° |
| 2026-05-08 10:10 | 49.50527 | -110.48408 | 33008 ft | 486 kts | 82° |
| 2026-05-08 10:11 | 49.50431 | -110.38014 | 32992 ft | 486 kts | 82° |
| 2026-05-08 10:11 | 49.50323 | -110.27622 | 32982 ft | 486 kts | 82° |
| 2026-05-08 10:12 | 49.50207 | -110.17232 | 32978 ft | 486 kts | 82° |
| 2026-05-08 10:12 | 49.50087 | -110.06836 | 33020 ft | 486 kts | 81° |
| 2026-05-08 10:13 | 49.50005 | -109.96452 | 33009 ft | 483 kts | 79° |
| 2026-05-08 10:13 | 49.50373 | -109.86207 | 32995 ft | 477 kts | 75° |
| 2026-05-08 10:14 | 49.50966 | -109.76056 | 32991 ft | 477 kts | 75° |
| 2026-05-08 10:14 | 49.51471 | -109.65924 | 32986 ft | 479 kts | 76° |
| 2026-05-08 10:15 | 49.51870 | -109.55704 | 32974 ft | 478 kts | 76° |
| 2026-05-08 10:15 | 49.52228 | -109.45499 | 32959 ft | 477 kts | 76° |
| 2026-05-08 10:16 | 49.52603 | -109.35311 | 32955 ft | 477 kts | 76° |
| 2026-05-08 10:16 | 49.52983 | -109.25113 | 32948 ft | 477 kts | 76° |
| 2026-05-08 10:17 | 49.53360 | -109.14911 | 33004 ft | 478 kts | 76° |